sensor_id;sensor_type;location;lat;lon;timestamp;P1;durP1;ratioP1;P2;durP2;ratioP2
15635;SDS011;7917;50.818;6.972;2022-08-19T00:01:23;14.05;;;12.02;;
15635;SDS011;7917;50.818;6.972;2022-08-19T00:03:51;14.57;;;12.68;;
15635;SDS011;7917;50.818;6.972;2022-08-19T00:06:19;15.07;;;12.85;;
15635;SDS011;7917;50.818;6.972;2022-08-19T00:08:47;15.55;;;12.93;;
15635;SDS011;7917;50.818;6.972;2022-08-19T00:11:17;15.07;;;12.52;;
15635;SDS011;7917;50.818;6.972;2022-08-19T00:13:45;14.68;;;13.05;;
15635;SDS011;7917;50.818;6.972;2022-08-19T00:16:13;15.77;;;13.50;;
15635;SDS011;7917;50.818;6.972;2022-08-19T00:18:40;19.92;;;13.48;;
15635;SDS011;7917;50.818;6.972;2022-08-19T00:21:08;15.02;;;12.95;;
15635;SDS011;7917;50.818;6.972;2022-08-19T00:23:35;15.43;;;13.10;;
15635;SDS011;7917;50.818;6.972;2022-08-19T00:26:04;15.70;;;12.55;;
15635;SDS011;7917;50.818;6.972;2022-08-19T00:28:31;18.67;;;13.07;;
15635;SDS011;7917;50.818;6.972;2022-08-19T00:31:00;17.15;;;12.45;;
15635;SDS011;7917;50.818;6.972;2022-08-19T00:33:28;16.38;;;12.40;;
15635;SDS011;7917;50.818;6.972;2022-08-19T00:35:57;19.13;;;12.02;;
15635;SDS011;7917;50.818;6.972;2022-08-19T00:38:25;14.55;;;12.07;;
15635;SDS011;7917;50.818;6.972;2022-08-19T00:40:52;15.85;;;13.52;;
15635;SDS011;7917;50.818;6.972;2022-08-19T00:43:22;18.42;;;13.07;;
15635;SDS011;7917;50.818;6.972;2022-08-19T00:45:51;20.88;;;13.50;;
15635;SDS011;7917;50.818;6.972;2022-08-19T00:48:18;15.15;;;13.55;;
15635;SDS011;7917;50.818;6.972;2022-08-19T00:50:47;14.73;;;13.10;;
15635;SDS011;7917;50.818;6.972;2022-08-19T00:53:18;15.32;;;13.82;;
15635;SDS011;7917;50.818;6.972;2022-08-19T00:55:49;17.77;;;13.30;;
15635;SDS011;7917;50.818;6.972;2022-08-19T00:58:21;18.58;;;15.20;;
15635;SDS011;7917;50.818;6.972;2022-08-19T01:00:53;16.63;;;14.75;;
15635;SDS011;7917;50.818;6.972;2022-08-19T01:03:21;16.58;;;14.85;;
15635;SDS011;7917;50.818;6.972;2022-08-19T01:05:49;17.92;;;15.30;;
15635;SDS011;7917;50.818;6.972;2022-08-19T01:08:18;18.75;;;15.63;;
15635;SDS011;7917;50.818;6.972;2022-08-19T01:10:49;15.77;;;13.98;;
15635;SDS011;7917;50.818;6.972;2022-08-19T01:13:19;17.00;;;15.20;;
15635;SDS011;7917;50.818;6.972;2022-08-19T01:15:53;17.92;;;14.35;;
15635;SDS011;7917;50.818;6.972;2022-08-19T01:18:23;17.67;;;15.45;;
15635;SDS011;7917;50.818;6.972;2022-08-19T01:20:53;20.27;;;15.98;;
15635;SDS011;7917;50.818;6.972;2022-08-19T01:23:24;18.05;;;15.82;;
15635;SDS011;7917;50.818;6.972;2022-08-19T01:26:08;19.83;;;16.23;;
15635;SDS011;7917;50.818;6.972;2022-08-19T01:28:37;19.63;;;16.45;;
15635;SDS011;7917;50.818;6.972;2022-08-19T01:31:04;18.92;;;17.10;;
15635;SDS011;7917;50.818;6.972;2022-08-19T01:33:33;20.85;;;16.13;;
15635;SDS011;7917;50.818;6.972;2022-08-19T01:36:04;19.10;;;17.10;;
15635;SDS011;7917;50.818;6.972;2022-08-19T01:38:38;20.48;;;17.45;;
15635;SDS011;7917;50.818;6.972;2022-08-19T01:41:08;19.00;;;16.55;;
15635;SDS011;7917;50.818;6.972;2022-08-19T01:43:36;23.02;;;17.98;;
15635;SDS011;7917;50.818;6.972;2022-08-19T01:46:03;19.13;;;17.00;;
15635;SDS011;7917;50.818;6.972;2022-08-19T01:48:34;19.05;;;17.08;;
15635;SDS011;7917;50.818;6.972;2022-08-19T01:51:04;18.45;;;16.52;;
15635;SDS011;7917;50.818;6.972;2022-08-19T01:53:31;19.52;;;17.63;;
15635;SDS011;7917;50.818;6.972;2022-08-19T01:56:00;20.73;;;18.48;;
15635;SDS011;7917;50.818;6.972;2022-08-19T01:58:35;18.98;;;17.08;;
15635;SDS011;7917;50.818;6.972;2022-08-19T02:01:06;19.55;;;17.45;;
15635;SDS011;7917;50.818;6.972;2022-08-19T02:03:34;22.15;;;17.55;;
15635;SDS011;7917;50.818;6.972;2022-08-19T02:06:02;20.13;;;18.13;;
15635;SDS011;7917;50.818;6.972;2022-08-19T02:08:31;22.73;;;20.38;;
15635;SDS011;7917;50.818;6.972;2022-08-19T02:11:01;20.00;;;18.00;;
15635;SDS011;7917;50.818;6.972;2022-08-19T02:13:28;24.30;;;18.17;;
15635;SDS011;7917;50.818;6.972;2022-08-19T02:15:57;20.35;;;18.10;;
15635;SDS011;7917;50.818;6.972;2022-08-19T02:18:24;21.70;;;18.40;;
15635;SDS011;7917;50.818;6.972;2022-08-19T02:20:52;21.60;;;18.45;;
15635;SDS011;7917;50.818;6.972;2022-08-19T02:23:20;21.58;;;19.27;;
15635;SDS011;7917;50.818;6.972;2022-08-19T02:25:47;22.00;;;19.05;;
15635;SDS011;7917;50.818;6.972;2022-08-19T02:28:16;21.50;;;17.95;;
15635;SDS011;7917;50.818;6.972;2022-08-19T02:30:43;21.33;;;18.77;;
15635;SDS011;7917;50.818;6.972;2022-08-19T02:33:11;21.88;;;19.65;;
15635;SDS011;7917;50.818;6.972;2022-08-19T02:35:40;22.25;;;19.85;;
15635;SDS011;7917;50.818;6.972;2022-08-19T02:38:09;24.25;;;20.40;;
15635;SDS011;7917;50.818;6.972;2022-08-19T02:40:55;20.38;;;18.17;;
15635;SDS011;7917;50.818;6.972;2022-08-19T02:43:25;22.23;;;19.92;;
15635;SDS011;7917;50.818;6.972;2022-08-19T02:45:53;21.92;;;19.52;;
15635;SDS011;7917;50.818;6.972;2022-08-19T02:48:21;23.42;;;20.92;;
15635;SDS011;7917;50.818;6.972;2022-08-19T02:50:50;24.92;;;21.48;;
15635;SDS011;7917;50.818;6.972;2022-08-19T02:53:20;23.40;;;20.80;;
15635;SDS011;7917;50.818;6.972;2022-08-19T02:55:48;28.40;;;21.92;;
15635;SDS011;7917;50.818;6.972;2022-08-19T02:58:17;24.52;;;22.13;;
15635;SDS011;7917;50.818;6.972;2022-08-19T03:04:01;26.88;;;24.00;;
15635;SDS011;7917;50.818;6.972;2022-08-19T03:06:31;25.10;;;22.40;;
15635;SDS011;7917;50.818;6.972;2022-08-19T03:08:58;26.30;;;23.55;;
15635;SDS011;7917;50.818;6.972;2022-08-19T03:11:27;29.05;;;23.88;;
15635;SDS011;7917;50.818;6.972;2022-08-19T03:13:55;25.65;;;22.92;;
15635;SDS011;7917;50.818;6.972;2022-08-19T03:16:24;27.65;;;24.75;;
15635;SDS011;7917;50.818;6.972;2022-08-19T03:18:53;27.35;;;24.42;;
15635;SDS011;7917;50.818;6.972;2022-08-19T03:21:26;29.63;;;25.08;;
15635;SDS011;7917;50.818;6.972;2022-08-19T03:23:56;31.60;;;23.92;;
15635;SDS011;7917;50.818;6.972;2022-08-19T03:26:24;30.23;;;25.05;;
15635;SDS011;7917;50.818;6.972;2022-08-19T03:28:51;27.67;;;23.80;;
15635;SDS011;7917;50.818;6.972;2022-08-19T03:31:19;27.30;;;24.42;;
15635;SDS011;7917;50.818;6.972;2022-08-19T03:33:48;29.45;;;24.40;;
15635;SDS011;7917;50.818;6.972;2022-08-19T03:36:17;26.98;;;23.65;;
15635;SDS011;7917;50.818;6.972;2022-08-19T03:38:48;28.92;;;25.70;;
15635;SDS011;7917;50.818;6.972;2022-08-19T03:41:18;28.75;;;25.45;;
15635;SDS011;7917;50.818;6.972;2022-08-19T03:43:47;27.30;;;24.40;;
15635;SDS011;7917;50.818;6.972;2022-08-19T03:46:17;30.10;;;24.92;;
15635;SDS011;7917;50.818;6.972;2022-08-19T03:48:48;26.88;;;24.10;;
15635;SDS011;7917;50.818;6.972;2022-08-19T03:51:19;28.33;;;25.13;;
15635;SDS011;7917;50.818;6.972;2022-08-19T03:53:49;27.85;;;24.15;;
15635;SDS011;7917;50.818;6.972;2022-08-19T03:56:17;28.30;;;24.67;;
15635;SDS011;7917;50.818;6.972;2022-08-19T03:58:45;29.52;;;26.42;;
15635;SDS011;7917;50.818;6.972;2022-08-19T04:01:13;29.85;;;26.58;;
15635;SDS011;7917;50.818;6.972;2022-08-19T04:03:43;32.47;;;28.30;;
15635;SDS011;7917;50.818;6.972;2022-08-19T04:06:11;31.67;;;27.98;;
15635;SDS011;7917;50.818;6.972;2022-08-19T04:08:40;32.97;;;27.75;;
15635;SDS011;7917;50.818;6.972;2022-08-19T04:11:10;31.60;;;28.20;;
15635;SDS011;7917;50.818;6.972;2022-08-19T04:13:39;33.55;;;28.35;;
15635;SDS011;7917;50.818;6.972;2022-08-19T04:16:07;30.95;;;27.65;;
15635;SDS011;7917;50.818;6.972;2022-08-19T04:18:35;33.83;;;29.33;;
15635;SDS011;7917;50.818;6.972;2022-08-19T04:21:04;34.80;;;29.52;;
15635;SDS011;7917;50.818;6.972;2022-08-19T04:23:32;35.40;;;31.60;;
15635;SDS011;7917;50.818;6.972;2022-08-19T04:26:01;34.95;;;28.85;;
15635;SDS011;7917;50.818;6.972;2022-08-19T04:28:30;35.72;;;30.63;;
15635;SDS011;7917;50.818;6.972;2022-08-19T04:30:57;38.25;;;29.92;;
15635;SDS011;7917;50.818;6.972;2022-08-19T04:33:25;37.85;;;30.90;;
15635;SDS011;7917;50.818;6.972;2022-08-19T04:35:53;37.42;;;29.92;;
15635;SDS011;7917;50.818;6.972;2022-08-19T04:38:23;35.50;;;30.05;;
15635;SDS011;7917;50.818;6.972;2022-08-19T04:40:51;34.20;;;30.48;;
15635;SDS011;7917;50.818;6.972;2022-08-19T04:43:37;37.45;;;30.90;;
15635;SDS011;7917;50.818;6.972;2022-08-19T04:46:05;41.10;;;32.10;;
15635;SDS011;7917;50.818;6.972;2022-08-19T04:48:33;39.53;;;30.55;;
15635;SDS011;7917;50.818;6.972;2022-08-19T04:51:00;37.75;;;30.67;;
15635;SDS011;7917;50.818;6.972;2022-08-19T04:53:32;39.70;;;30.23;;
15635;SDS011;7917;50.818;6.972;2022-08-19T04:56:03;50.75;;;29.77;;
15635;SDS011;7917;50.818;6.972;2022-08-19T04:58:33;47.42;;;30.52;;
15635;SDS011;7917;50.818;6.972;2022-08-19T05:01:01;40.33;;;31.75;;
15635;SDS011;7917;50.818;6.972;2022-08-19T05:03:29;39.05;;;30.13;;
15635;SDS011;7917;50.818;6.972;2022-08-19T05:05:58;47.22;;;33.97;;
15635;SDS011;7917;50.818;6.972;2022-08-19T05:08:33;42.33;;;31.88;;
15635;SDS011;7917;50.818;6.972;2022-08-19T05:11:06;40.63;;;31.63;;
15635;SDS011;7917;50.818;6.972;2022-08-19T05:13:34;42.13;;;33.92;;
15635;SDS011;7917;50.818;6.972;2022-08-19T05:16:03;39.58;;;31.33;;
15635;SDS011;7917;50.818;6.972;2022-08-19T05:18:31;40.55;;;31.92;;
15635;SDS011;7917;50.818;6.972;2022-08-19T05:21:16;40.50;;;32.70;;
15635;SDS011;7917;50.818;6.972;2022-08-19T05:24:02;40.10;;;33.15;;
15635;SDS011;7917;50.818;6.972;2022-08-19T05:26:33;39.42;;;33.55;;
15635;SDS011;7917;50.818;6.972;2022-08-19T05:29:00;46.80;;;33.95;;
15635;SDS011;7917;50.818;6.972;2022-08-19T05:31:29;40.80;;;32.17;;
15635;SDS011;7917;50.818;6.972;2022-08-19T05:33:57;44.60;;;33.60;;
15635;SDS011;7917;50.818;6.972;2022-08-19T05:36:24;41.58;;;33.45;;
15635;SDS011;7917;50.818;6.972;2022-08-19T05:38:52;38.65;;;33.58;;
15635;SDS011;7917;50.818;6.972;2022-08-19T05:41:19;38.88;;;34.38;;
15635;SDS011;7917;50.818;6.972;2022-08-19T05:43:54;42.80;;;33.50;;
15635;SDS011;7917;50.818;6.972;2022-08-19T05:46:22;43.85;;;34.75;;
15635;SDS011;7917;50.818;6.972;2022-08-19T05:48:51;39.35;;;33.28;;
15635;SDS011;7917;50.818;6.972;2022-08-19T05:51:19;44.20;;;34.17;;
15635;SDS011;7917;50.818;6.972;2022-08-19T05:53:47;43.00;;;32.78;;
15635;SDS011;7917;50.818;6.972;2022-08-19T05:56:15;40.78;;;32.83;;
15635;SDS011;7917;50.818;6.972;2022-08-19T05:58:43;40.97;;;33.50;;
15635;SDS011;7917;50.818;6.972;2022-08-19T06:01:12;40.42;;;33.95;;
15635;SDS011;7917;50.818;6.972;2022-08-19T06:03:41;39.40;;;34.70;;
15635;SDS011;7917;50.818;6.972;2022-08-19T06:06:10;45.05;;;34.40;;
15635;SDS011;7917;50.818;6.972;2022-08-19T06:08:39;44.13;;;34.95;;
15635;SDS011;7917;50.818;6.972;2022-08-19T06:11:12;49.17;;;35.40;;
15635;SDS011;7917;50.818;6.972;2022-08-19T06:13:41;42.58;;;34.38;;
15635;SDS011;7917;50.818;6.972;2022-08-19T06:16:10;40.78;;;34.25;;
15635;SDS011;7917;50.818;6.972;2022-08-19T06:18:37;45.25;;;36.15;;
15635;SDS011;7917;50.818;6.972;2022-08-19T06:21:05;45.00;;;34.17;;
15635;SDS011;7917;50.818;6.972;2022-08-19T06:23:34;52.05;;;36.40;;
15635;SDS011;7917;50.818;6.972;2022-08-19T06:26:01;44.10;;;35.00;;
15635;SDS011;7917;50.818;6.972;2022-08-19T06:28:28;46.90;;;35.80;;
15635;SDS011;7917;50.818;6.972;2022-08-19T06:30:55;44.85;;;35.85;;
15635;SDS011;7917;50.818;6.972;2022-08-19T06:33:22;45.78;;;36.45;;
15635;SDS011;7917;50.818;6.972;2022-08-19T06:35:49;48.58;;;34.85;;
15635;SDS011;7917;50.818;6.972;2022-08-19T06:38:16;47.05;;;34.85;;
15635;SDS011;7917;50.818;6.972;2022-08-19T06:40:46;47.85;;;35.58;;
15635;SDS011;7917;50.818;6.972;2022-08-19T06:43:13;42.80;;;34.80;;
15635;SDS011;7917;50.818;6.972;2022-08-19T06:45:41;45.42;;;34.97;;
15635;SDS011;7917;50.818;6.972;2022-08-19T06:48:08;43.50;;;34.03;;
15635;SDS011;7917;50.818;6.972;2022-08-19T06:50:35;42.67;;;33.75;;
15635;SDS011;7917;50.818;6.972;2022-08-19T06:53:03;47.10;;;34.92;;
15635;SDS011;7917;50.818;6.972;2022-08-19T06:55:30;43.30;;;32.28;;
15635;SDS011;7917;50.818;6.972;2022-08-19T06:58:02;38.15;;;30.52;;
15635;SDS011;7917;50.818;6.972;2022-08-19T07:00:31;43.00;;;30.40;;
15635;SDS011;7917;50.818;6.972;2022-08-19T07:02:59;40.78;;;30.65;;
15635;SDS011;7917;50.818;6.972;2022-08-19T07:05:27;37.13;;;30.95;;
15635;SDS011;7917;50.818;6.972;2022-08-19T07:07:54;37.95;;;30.95;;
15635;SDS011;7917;50.818;6.972;2022-08-19T07:10:22;41.80;;;30.67;;
15635;SDS011;7917;50.818;6.972;2022-08-19T07:12:50;37.80;;;29.58;;
15635;SDS011;7917;50.818;6.972;2022-08-19T07:15:18;36.17;;;29.45;;
15635;SDS011;7917;50.818;6.972;2022-08-19T07:17:46;41.90;;;29.70;;
15635;SDS011;7917;50.818;6.972;2022-08-19T07:20:13;33.90;;;27.88;;
15635;SDS011;7917;50.818;6.972;2022-08-19T07:22:41;39.15;;;28.58;;
15635;SDS011;7917;50.818;6.972;2022-08-19T07:25:08;37.30;;;27.63;;
15635;SDS011;7917;50.818;6.972;2022-08-19T07:27:38;38.35;;;27.58;;
15635;SDS011;7917;50.818;6.972;2022-08-19T07:30:06;43.85;;;28.17;;
15635;SDS011;7917;50.818;6.972;2022-08-19T07:32:39;42.83;;;29.65;;
15635;SDS011;7917;50.818;6.972;2022-08-19T07:35:07;40.25;;;28.35;;
15635;SDS011;7917;50.818;6.972;2022-08-19T07:37:35;35.47;;;28.98;;
15635;SDS011;7917;50.818;6.972;2022-08-19T07:40:04;36.13;;;28.27;;
15635;SDS011;7917;50.818;6.972;2022-08-19T07:42:33;34.13;;;27.35;;
15635;SDS011;7917;50.818;6.972;2022-08-19T07:45:00;37.17;;;27.70;;
15635;SDS011;7917;50.818;6.972;2022-08-19T07:47:27;37.55;;;28.17;;
15635;SDS011;7917;50.818;6.972;2022-08-19T07:49:56;35.88;;;26.85;;
15635;SDS011;7917;50.818;6.972;2022-08-19T07:52:23;41.22;;;26.17;;
15635;SDS011;7917;50.818;6.972;2022-08-19T07:54:50;43.45;;;25.40;;
15635;SDS011;7917;50.818;6.972;2022-08-19T07:57:17;37.10;;;27.75;;
15635;SDS011;7917;50.818;6.972;2022-08-19T07:59:44;33.53;;;27.67;;
15635;SDS011;7917;50.818;6.972;2022-08-19T08:02:12;33.03;;;26.40;;
15635;SDS011;7917;50.818;6.972;2022-08-19T08:04:39;35.47;;;27.77;;
15635;SDS011;7917;50.818;6.972;2022-08-19T08:07:24;32.28;;;27.00;;
15635;SDS011;7917;50.818;6.972;2022-08-19T08:10:09;31.98;;;24.23;;
15635;SDS011;7917;50.818;6.972;2022-08-19T08:12:38;34.88;;;27.20;;
15635;SDS011;7917;50.818;6.972;2022-08-19T08:15:08;34.67;;;25.92;;
15635;SDS011;7917;50.818;6.972;2022-08-19T08:17:37;33.60;;;26.42;;
15635;SDS011;7917;50.818;6.972;2022-08-19T08:20:05;35.17;;;27.15;;
15635;SDS011;7917;50.818;6.972;2022-08-19T08:22:34;33.13;;;26.80;;
15635;SDS011;7917;50.818;6.972;2022-08-19T08:25:20;33.63;;;26.83;;
15635;SDS011;7917;50.818;6.972;2022-08-19T08:27:49;35.58;;;27.75;;
15635;SDS011;7917;50.818;6.972;2022-08-19T08:30:18;39.72;;;30.45;;
15635;SDS011;7917;50.818;6.972;2022-08-19T08:32:46;40.95;;;30.65;;
15635;SDS011;7917;50.818;6.972;2022-08-19T08:35:14;36.90;;;28.88;;
15635;SDS011;7917;50.818;6.972;2022-08-19T08:37:45;45.40;;;32.20;;
15635;SDS011;7917;50.818;6.972;2022-08-19T08:40:16;42.88;;;32.15;;
15635;SDS011;7917;50.818;6.972;2022-08-19T08:42:48;43.58;;;34.70;;
15635;SDS011;7917;50.818;6.972;2022-08-19T08:45:20;48.20;;;35.65;;
15635;SDS011;7917;50.818;6.972;2022-08-19T08:47:50;52.40;;;39.55;;
15635;SDS011;7917;50.818;6.972;2022-08-19T08:50:20;48.58;;;37.42;;
15635;SDS011;7917;50.818;6.972;2022-08-19T08:52:53;51.17;;;38.35;;
15635;SDS011;7917;50.818;6.972;2022-08-19T08:55:24;53.03;;;36.92;;
15635;SDS011;7917;50.818;6.972;2022-08-19T08:57:54;54.15;;;39.35;;
15635;SDS011;7917;50.818;6.972;2022-08-19T09:00:26;53.92;;;39.05;;
15635;SDS011;7917;50.818;6.972;2022-08-19T09:02:56;53.63;;;38.15;;
15635;SDS011;7917;50.818;6.972;2022-08-19T09:05:25;51.20;;;37.55;;
15635;SDS011;7917;50.818;6.972;2022-08-19T09:08:02;53.25;;;36.00;;
15635;SDS011;7917;50.818;6.972;2022-08-19T09:10:34;53.63;;;36.15;;
15635;SDS011;7917;50.818;6.972;2022-08-19T09:13:07;51.08;;;37.40;;
15635;SDS011;7917;50.818;6.972;2022-08-19T09:15:44;51.67;;;37.00;;
15635;SDS011;7917;50.818;6.972;2022-08-19T09:18:15;51.15;;;36.67;;
15635;SDS011;7917;50.818;6.972;2022-08-19T09:20:43;48.58;;;36.00;;
15635;SDS011;7917;50.818;6.972;2022-08-19T09:23:13;46.08;;;33.20;;
15635;SDS011;7917;50.818;6.972;2022-08-19T09:25:40;49.05;;;36.95;;
15635;SDS011;7917;50.818;6.972;2022-08-19T09:28:08;45.00;;;33.38;;
15635;SDS011;7917;50.818;6.972;2022-08-19T09:30:38;47.15;;;35.22;;
15635;SDS011;7917;50.818;6.972;2022-08-19T09:33:06;44.65;;;31.67;;
15635;SDS011;7917;50.818;6.972;2022-08-19T09:35:34;41.05;;;31.27;;
15635;SDS011;7917;50.818;6.972;2022-08-19T09:38:01;43.65;;;32.45;;
15635;SDS011;7917;50.818;6.972;2022-08-19T09:40:31;38.08;;;28.17;;
15635;SDS011;7917;50.818;6.972;2022-08-19T09:42:58;36.22;;;26.85;;
15635;SDS011;7917;50.818;6.972;2022-08-19T09:45:27;33.90;;;25.77;;
15635;SDS011;7917;50.818;6.972;2022-08-19T09:47:55;28.45;;;22.85;;
15635;SDS011;7917;50.818;6.972;2022-08-19T09:50:25;25.33;;;20.30;;
15635;SDS011;7917;50.818;6.972;2022-08-19T09:52:52;26.80;;;17.90;;
15635;SDS011;7917;50.818;6.972;2022-08-19T09:55:20;24.67;;;21.98;;
15635;SDS011;7917;50.818;6.972;2022-08-19T09:57:48;21.80;;;19.30;;
15635;SDS011;7917;50.818;6.972;2022-08-19T10:00:15;19.50;;;15.60;;
15635;SDS011;7917;50.818;6.972;2022-08-19T10:02:42;19.45;;;15.93;;
15635;SDS011;7917;50.818;6.972;2022-08-19T10:05:10;19.65;;;15.07;;
15635;SDS011;7917;50.818;6.972;2022-08-19T10:07:54;23.02;;;18.55;;
15635;SDS011;7917;50.818;6.972;2022-08-19T10:10:22;23.55;;;16.88;;
15635;SDS011;7917;50.818;6.972;2022-08-19T10:12:52;21.13;;;15.90;;
15635;SDS011;7917;50.818;6.972;2022-08-19T10:15:20;23.77;;;16.85;;
15635;SDS011;7917;50.818;6.972;2022-08-19T10:17:47;18.45;;;16.42;;
15635;SDS011;7917;50.818;6.972;2022-08-19T10:20:14;17.20;;;15.40;;
15635;SDS011;7917;50.818;6.972;2022-08-19T10:22:45;23.65;;;17.10;;
15635;SDS011;7917;50.818;6.972;2022-08-19T10:25:13;18.50;;;16.33;;
15635;SDS011;7917;50.818;6.972;2022-08-19T10:27:41;15.45;;;13.65;;
15635;SDS011;7917;50.818;6.972;2022-08-19T10:30:11;16.85;;;14.27;;
15635;SDS011;7917;50.818;6.972;2022-08-19T10:32:39;19.02;;;13.85;;
15635;SDS011;7917;50.818;6.972;2022-08-19T10:35:06;18.20;;;13.90;;
15635;SDS011;7917;50.818;6.972;2022-08-19T10:37:34;18.05;;;13.98;;
15635;SDS011;7917;50.818;6.972;2022-08-19T10:40:02;19.42;;;13.30;;
15635;SDS011;7917;50.818;6.972;2022-08-19T10:42:32;19.33;;;15.30;;
15635;SDS011;7917;50.818;6.972;2022-08-19T10:45:00;20.30;;;15.60;;
15635;SDS011;7917;50.818;6.972;2022-08-19T10:47:29;18.35;;;13.85;;
15635;SDS011;7917;50.818;6.972;2022-08-19T10:49:56;16.95;;;14.88;;
15635;SDS011;7917;50.818;6.972;2022-08-19T10:52:41;16.80;;;15.00;;
15635;SDS011;7917;50.818;6.972;2022-08-19T10:55:09;18.88;;;14.65;;
15635;SDS011;7917;50.818;6.972;2022-08-19T10:57:53;13.25;;;11.13;;
15635;SDS011;7917;50.818;6.972;2022-08-19T11:00:22;13.60;;;11.38;;
15635;SDS011;7917;50.818;6.972;2022-08-19T11:02:52;18.17;;;14.43;;
15635;SDS011;7917;50.818;6.972;2022-08-19T11:05:19;21.48;;;16.17;;
15635;SDS011;7917;50.818;6.972;2022-08-19T11:07:49;18.75;;;14.02;;
15635;SDS011;7917;50.818;6.972;2022-08-19T11:10:16;16.02;;;14.27;;
15635;SDS011;7917;50.818;6.972;2022-08-19T11:12:44;19.70;;;15.00;;
15635;SDS011;7917;50.818;6.972;2022-08-19T11:15:13;14.38;;;12.23;;
15635;SDS011;7917;50.818;6.972;2022-08-19T11:17:40;17.55;;;13.30;;
15635;SDS011;7917;50.818;6.972;2022-08-19T11:20:11;13.73;;;12.40;;
15635;SDS011;7917;50.818;6.972;2022-08-19T11:22:39;19.02;;;15.10;;
15635;SDS011;7917;50.818;6.972;2022-08-19T11:25:08;15.98;;;11.75;;
15635;SDS011;7917;50.818;6.972;2022-08-19T11:27:37;15.38;;;12.73;;
15635;SDS011;7917;50.818;6.972;2022-08-19T11:30:07;18.42;;;12.70;;
15635;SDS011;7917;50.818;6.972;2022-08-19T11:32:36;16.17;;;12.95;;
15635;SDS011;7917;50.818;6.972;2022-08-19T11:35:04;13.88;;;11.45;;
15635;SDS011;7917;50.818;6.972;2022-08-19T11:37:33;12.90;;;11.45;;
15635;SDS011;7917;50.818;6.972;2022-08-19T11:40:02;13.60;;;10.80;;
15635;SDS011;7917;50.818;6.972;2022-08-19T11:42:31;12.25;;;11.10;;
15635;SDS011;7917;50.818;6.972;2022-08-19T11:45:16;13.82;;;10.70;;
15635;SDS011;7917;50.818;6.972;2022-08-19T11:47:43;18.10;;;10.57;;
15635;SDS011;7917;50.818;6.972;2022-08-19T11:50:11;13.70;;;11.73;;
15635;SDS011;7917;50.818;6.972;2022-08-19T11:52:40;18.73;;;13.13;;
15635;SDS011;7917;50.818;6.972;2022-08-19T11:55:09;12.95;;;10.63;;
15635;SDS011;7917;50.818;6.972;2022-08-19T11:57:36;15.95;;;11.07;;
15635;SDS011;7917;50.818;6.972;2022-08-19T12:00:04;20.52;;;13.68;;
15635;SDS011;7917;50.818;6.972;2022-08-19T12:02:32;21.23;;;12.30;;
15635;SDS011;7917;50.818;6.972;2022-08-19T12:05:00;16.20;;;12.32;;
15635;SDS011;7917;50.818;6.972;2022-08-19T12:07:28;14.73;;;12.52;;
15635;SDS011;7917;50.818;6.972;2022-08-19T12:09:59;17.33;;;12.52;;
15635;SDS011;7917;50.818;6.972;2022-08-19T12:12:27;17.60;;;14.90;;
15635;SDS011;7917;50.818;6.972;2022-08-19T12:14:54;23.58;;;16.17;;
15635;SDS011;7917;50.818;6.972;2022-08-19T12:17:23;16.63;;;14.85;;
15635;SDS011;7917;50.818;6.972;2022-08-19T12:19:51;19.60;;;16.05;;
15635;SDS011;7917;50.818;6.972;2022-08-19T12:22:19;19.70;;;15.57;;
15635;SDS011;7917;50.818;6.972;2022-08-19T12:24:47;18.35;;;14.25;;
15635;SDS011;7917;50.818;6.972;2022-08-19T12:27:17;26.90;;;16.13;;
15635;SDS011;7917;50.818;6.972;2022-08-19T12:29:44;16.02;;;14.38;;
15635;SDS011;7917;50.818;6.972;2022-08-19T12:32:11;17.05;;;13.25;;
15635;SDS011;7917;50.818;6.972;2022-08-19T12:34:39;16.70;;;13.63;;
15635;SDS011;7917;50.818;6.972;2022-08-19T12:37:06;15.80;;;12.48;;
15635;SDS011;7917;50.818;6.972;2022-08-19T12:39:35;16.48;;;14.70;;
15635;SDS011;7917;50.818;6.972;2022-08-19T12:42:04;14.75;;;12.00;;
15635;SDS011;7917;50.818;6.972;2022-08-19T12:44:35;13.73;;;11.70;;
15635;SDS011;7917;50.818;6.972;2022-08-19T12:47:03;18.35;;;14.95;;
15635;SDS011;7917;50.818;6.972;2022-08-19T12:49:30;14.98;;;11.57;;
15635;SDS011;7917;50.818;6.972;2022-08-19T12:52:02;14.30;;;12.30;;
15635;SDS011;7917;50.818;6.972;2022-08-19T12:54:30;11.70;;;9.98;;
15635;SDS011;7917;50.818;6.972;2022-08-19T12:56:57;15.02;;;12.40;;
15635;SDS011;7917;50.818;6.972;2022-08-19T12:59:25;13.75;;;10.43;;
15635;SDS011;7917;50.818;6.972;2022-08-19T13:01:54;20.95;;;13.25;;
15635;SDS011;7917;50.818;6.972;2022-08-19T13:04:21;13.07;;;11.23;;
15635;SDS011;7917;50.818;6.972;2022-08-19T13:06:48;12.50;;;11.20;;
15635;SDS011;7917;50.818;6.972;2022-08-19T13:09:15;15.65;;;11.57;;
15635;SDS011;7917;50.818;6.972;2022-08-19T13:11:43;13.45;;;10.88;;
15635;SDS011;7917;50.818;6.972;2022-08-19T13:14:10;14.13;;;10.70;;
15635;SDS011;7917;50.818;6.972;2022-08-19T13:16:37;15.60;;;10.27;;
15635;SDS011;7917;50.818;6.972;2022-08-19T13:19:06;12.07;;;9.65;;
15635;SDS011;7917;50.818;6.972;2022-08-19T13:21:33;10.52;;;9.43;;
15635;SDS011;7917;50.818;6.972;2022-08-19T13:24:01;14.18;;;10.52;;
15635;SDS011;7917;50.818;6.972;2022-08-19T13:26:28;15.70;;;10.18;;
15635;SDS011;7917;50.818;6.972;2022-08-19T13:28:55;14.88;;;8.75;;
15635;SDS011;7917;50.818;6.972;2022-08-19T13:31:40;13.07;;;7.72;;
15635;SDS011;7917;50.818;6.972;2022-08-19T13:34:29;9.88;;;8.85;;
15635;SDS011;7917;50.818;6.972;2022-08-19T13:36:58;9.00;;;8.10;;
15635;SDS011;7917;50.818;6.972;2022-08-19T13:39:28;9.68;;;7.72;;
15635;SDS011;7917;50.818;6.972;2022-08-19T13:41:55;8.30;;;7.40;;
15635;SDS011;7917;50.818;6.972;2022-08-19T13:44:23;6.90;;;6.15;;
15635;SDS011;7917;50.818;6.972;2022-08-19T13:46:50;8.93;;;8.02;;
15635;SDS011;7917;50.818;6.972;2022-08-19T13:49:17;10.75;;;8.85;;
15635;SDS011;7917;50.818;6.972;2022-08-19T13:51:46;15.57;;;9.73;;
15635;SDS011;7917;50.818;6.972;2022-08-19T13:54:13;13.82;;;9.55;;
15635;SDS011;7917;50.818;6.972;2022-08-19T13:56:41;13.23;;;8.80;;
15635;SDS011;7917;50.818;6.972;2022-08-19T13:59:09;13.75;;;9.35;;
15635;SDS011;7917;50.818;6.972;2022-08-19T14:01:36;14.98;;;10.02;;
15635;SDS011;7917;50.818;6.972;2022-08-19T14:04:04;12.45;;;10.48;;
15635;SDS011;7917;50.818;6.972;2022-08-19T14:06:32;10.60;;;9.32;;
15635;SDS011;7917;50.818;6.972;2022-08-19T14:09:01;11.18;;;9.57;;
15635;SDS011;7917;50.818;6.972;2022-08-19T14:11:28;10.95;;;9.13;;
15635;SDS011;7917;50.818;6.972;2022-08-19T14:13:56;10.50;;;9.25;;
15635;SDS011;7917;50.818;6.972;2022-08-19T14:16:23;12.85;;;9.20;;
15635;SDS011;7917;50.818;6.972;2022-08-19T14:18:52;11.52;;;9.55;;
15635;SDS011;7917;50.818;6.972;2022-08-19T14:21:20;10.63;;;9.50;;
15635;SDS011;7917;50.818;6.972;2022-08-19T14:23:50;11.82;;;8.88;;
15635;SDS011;7917;50.818;6.972;2022-08-19T14:26:20;12.23;;;9.35;;
15635;SDS011;7917;50.818;6.972;2022-08-19T14:28:49;11.52;;;9.73;;
15635;SDS011;7917;50.818;6.972;2022-08-19T14:31:17;13.23;;;9.30;;
15635;SDS011;7917;50.818;6.972;2022-08-19T14:33:45;14.20;;;9.27;;
15635;SDS011;7917;50.818;6.972;2022-08-19T14:36:14;11.43;;;9.27;;
15635;SDS011;7917;50.818;6.972;2022-08-19T14:38:42;8.88;;;7.88;;
15635;SDS011;7917;50.818;6.972;2022-08-19T14:41:11;11.27;;;9.23;;
15635;SDS011;7917;50.818;6.972;2022-08-19T14:43:43;13.23;;;8.95;;
15635;SDS011;7917;50.818;6.972;2022-08-19T14:46:12;13.02;;;9.00;;
15635;SDS011;7917;50.818;6.972;2022-08-19T14:48:40;13.52;;;8.88;;
15635;SDS011;7917;50.818;6.972;2022-08-19T14:51:08;10.07;;;7.22;;